sensor_id;sensor_type;location;lat;lon;timestamp;P1;durP1;ratioP1;P2;durP2;ratioP2
63095;SDS011;49184;55.596;37.770;2022-07-05T01:17:06;100.40;;;33.50;;
63095;SDS011;49184;55.596;37.770;2022-07-05T01:19:33;82.68;;;30.70;;
63095;SDS011;49184;55.596;37.770;2022-07-05T01:22:01;82.70;;;32.58;;
63095;SDS011;49184;55.596;37.770;2022-07-05T01:24:33;93.07;;;31.73;;
63095;SDS011;49184;55.596;37.770;2022-07-05T01:26:59;73.35;;;32.95;;
63095;SDS011;49184;55.596;37.770;2022-07-05T01:29:27;76.55;;;31.77;;
63095;SDS011;49184;55.596;37.770;2022-07-05T01:31:53;83.80;;;32.80;;
63095;SDS011;49184;55.596;37.770;2022-07-05T01:34:20;82.45;;;32.58;;
63095;SDS011;49184;55.596;37.770;2022-07-05T01:36:46;88.72;;;32.15;;
63095;SDS011;49184;55.596;37.770;2022-07-05T01:41:40;65.25;;;28.85;;
63095;SDS011;49184;55.596;37.770;2022-07-05T01:44:06;159.77;;;35.63;;
63095;SDS011;49184;55.596;37.770;2022-07-05T01:46:33;143.73;;;32.80;;
63095;SDS011;49184;55.596;37.770;2022-07-05T01:49:04;87.97;;;29.60;;
63095;SDS011;49184;55.596;37.770;2022-07-05T01:51:47;70.18;;;27.83;;
63095;SDS011;49184;55.596;37.770;2022-07-05T01:54:18;60.88;;;27.92;;
63095;SDS011;49184;55.596;37.770;2022-07-05T01:56:44;71.32;;;27.30;;
63095;SDS011;49184;55.596;37.770;2022-07-05T01:59:11;67.10;;;28.52;;
63095;SDS011;49184;55.596;37.770;2022-07-05T02:04:05;81.53;;;28.50;;
63095;SDS011;49184;55.596;37.770;2022-07-05T02:06:33;72.53;;;28.23;;
63095;SDS011;49184;55.596;37.770;2022-07-05T02:09:01;121.70;;;29.75;;
63095;SDS011;49184;55.596;37.770;2022-07-05T02:11:29;119.00;;;31.73;;
63095;SDS011;49184;55.596;37.770;2022-07-05T02:13:57;83.68;;;30.85;;
63095;SDS011;49184;55.596;37.770;2022-07-05T02:16:45;75.85;;;29.77;;
63095;SDS011;49184;55.596;37.770;2022-07-05T02:21:41;76.45;;;28.83;;
63095;SDS011;49184;55.596;37.770;2022-07-05T02:24:11;89.82;;;30.58;;
63095;SDS011;49184;55.596;37.770;2022-07-05T02:26:45;83.57;;;30.80;;
63095;SDS011;49184;55.596;37.770;2022-07-05T02:29:13;78.35;;;32.22;;
63095;SDS011;49184;55.596;37.770;2022-07-05T02:31:41;86.20;;;31.55;;
63095;SDS011;49184;55.596;37.770;2022-07-05T02:34:08;76.63;;;31.27;;
63095;SDS011;49184;55.596;37.770;2022-07-05T02:36:34;70.07;;;30.15;;
63095;SDS011;49184;55.596;37.770;2022-07-05T02:39:00;106.38;;;31.17;;
63095;SDS011;49184;55.596;37.770;2022-07-05T02:43:53;91.85;;;31.58;;
63095;SDS011;49184;55.596;37.770;2022-07-05T02:46:25;90.85;;;30.73;;
63095;SDS011;49184;55.596;37.770;2022-07-05T02:48:53;103.07;;;32.78;;
63095;SDS011;49184;55.596;37.770;2022-07-05T02:53:49;97.53;;;32.28;;
63095;SDS011;49184;55.596;37.770;2022-07-05T02:56:16;80.88;;;31.33;;
63095;SDS011;49184;55.596;37.770;2022-07-05T02:58:43;88.35;;;31.80;;
63095;SDS011;49184;55.596;37.770;2022-07-05T03:01:12;72.93;;;31.33;;
63095;SDS011;49184;55.596;37.770;2022-07-05T03:03:39;75.25;;;31.67;;
63095;SDS011;49184;55.596;37.770;2022-07-05T03:06:06;70.63;;;30.75;;
63095;SDS011;49184;55.596;37.770;2022-07-05T03:08:34;72.82;;;31.33;;
63095;SDS011;49184;55.596;37.770;2022-07-05T03:11:03;80.80;;;31.90;;
63095;SDS011;49184;55.596;37.770;2022-07-05T03:13:31;68.43;;;30.17;;
63095;SDS011;49184;55.596;37.770;2022-07-05T03:15:57;63.17;;;30.35;;
63095;SDS011;49184;55.596;37.770;2022-07-05T03:18:24;66.53;;;29.08;;
63095;SDS011;49184;55.596;37.770;2022-07-05T03:20:51;62.40;;;29.20;;
63095;SDS011;49184;55.596;37.770;2022-07-05T03:23:20;65.82;;;29.85;;
63095;SDS011;49184;55.596;37.770;2022-07-05T03:25:51;76.50;;;29.80;;
63095;SDS011;49184;55.596;37.770;2022-07-05T03:28:18;71.45;;;28.73;;
63095;SDS011;49184;55.596;37.770;2022-07-05T03:30:46;59.35;;;28.73;;
63095;SDS011;49184;55.596;37.770;2022-07-05T03:33:13;61.75;;;28.80;;
63095;SDS011;49184;55.596;37.770;2022-07-05T03:35:43;64.97;;;29.60;;
63095;SDS011;49184;55.596;37.770;2022-07-05T03:38:12;74.15;;;29.00;;
63095;SDS011;49184;55.596;37.770;2022-07-05T03:40:40;68.43;;;27.45;;
63095;SDS011;49184;55.596;37.770;2022-07-05T03:43:07;55.08;;;26.40;;
63095;SDS011;49184;55.596;37.770;2022-07-05T03:45:37;61.83;;;29.38;;
63095;SDS011;49184;55.596;37.770;2022-07-05T03:48:06;74.40;;;30.55;;
63095;SDS011;49184;55.596;37.770;2022-07-05T03:50:34;77.53;;;30.67;;
63095;SDS011;49184;55.596;37.770;2022-07-05T03:53:01;66.47;;;33.72;;
63095;SDS011;49184;55.596;37.770;2022-07-05T03:55:28;81.32;;;33.50;;
63095;SDS011;49184;55.596;37.770;2022-07-05T03:57:54;72.63;;;32.42;;
63095;SDS011;49184;55.596;37.770;2022-07-05T04:00:22;77.38;;;32.65;;
63095;SDS011;49184;55.596;37.770;2022-07-05T04:02:57;81.03;;;34.60;;
63095;SDS011;49184;55.596;37.770;2022-07-05T04:05:26;92.18;;;33.42;;
63095;SDS011;49184;55.596;37.770;2022-07-05T04:07:54;82.10;;;32.13;;
63095;SDS011;49184;55.596;37.770;2022-07-05T04:10:29;73.15;;;28.92;;
63095;SDS011;49184;55.596;37.770;2022-07-05T04:12:57;67.90;;;27.95;;
63095;SDS011;49184;55.596;37.770;2022-07-05T04:15:26;71.88;;;29.27;;
63095;SDS011;49184;55.596;37.770;2022-07-05T04:17:56;67.03;;;29.30;;
63095;SDS011;49184;55.596;37.770;2022-07-05T04:20:26;72.95;;;28.65;;
63095;SDS011;49184;55.596;37.770;2022-07-05T04:22:54;56.85;;;24.77;;
63095;SDS011;49184;55.596;37.770;2022-07-05T04:25:24;56.42;;;25.77;;
63095;SDS011;49184;55.596;37.770;2022-07-05T04:28:06;54.95;;;25.30;;
63095;SDS011;49184;55.596;37.770;2022-07-05T04:30:36;63.88;;;25.88;;
63095;SDS011;49184;55.596;37.770;2022-07-05T04:33:04;65.00;;;25.40;;
63095;SDS011;49184;55.596;37.770;2022-07-05T04:35:31;62.88;;;25.95;;
63095;SDS011;49184;55.596;37.770;2022-07-05T04:37:58;65.07;;;26.10;;
63095;SDS011;49184;55.596;37.770;2022-07-05T04:40:27;57.10;;;25.85;;
63095;SDS011;49184;55.596;37.770;2022-07-05T04:42:54;59.90;;;25.75;;
63095;SDS011;49184;55.596;37.770;2022-07-05T04:45:23;65.78;;;26.38;;
63095;SDS011;49184;55.596;37.770;2022-07-05T04:47:52;46.75;;;22.10;;
63095;SDS011;49184;55.596;37.770;2022-07-05T04:50:22;71.43;;;23.17;;
63095;SDS011;49184;55.596;37.770;2022-07-05T04:52:50;64.03;;;22.13;;
63095;SDS011;49184;55.596;37.770;2022-07-05T04:55:18;52.63;;;22.73;;
63095;SDS011;49184;55.596;37.770;2022-07-05T04:57:44;55.97;;;23.77;;
63095;SDS011;49184;55.596;37.770;2022-07-05T05:00:11;70.07;;;25.13;;
63095;SDS011;49184;55.596;37.770;2022-07-05T05:02:41;71.68;;;25.73;;
63095;SDS011;49184;55.596;37.770;2022-07-05T05:05:07;73.63;;;25.63;;
63095;SDS011;49184;55.596;37.770;2022-07-05T05:07:34;68.40;;;25.33;;
63095;SDS011;49184;55.596;37.770;2022-07-05T05:14:52;57.58;;;25.90;;
63095;SDS011;49184;55.596;37.770;2022-07-05T05:17:18;60.83;;;25.08;;
63095;SDS011;49184;55.596;37.770;2022-07-05T05:19:44;70.65;;;26.08;;
63095;SDS011;49184;55.596;37.770;2022-07-05T05:22:10;78.72;;;25.58;;
63095;SDS011;49184;55.596;37.770;2022-07-05T05:27:05;73.50;;;26.23;;
63095;SDS011;49184;55.596;37.770;2022-07-05T05:29:31;70.35;;;24.63;;
63095;SDS011;49184;55.596;37.770;2022-07-05T05:31:58;63.28;;;26.63;;
63095;SDS011;49184;55.596;37.770;2022-07-05T05:34:25;86.70;;;28.00;;
63095;SDS011;49184;55.596;37.770;2022-07-05T05:36:51;66.82;;;25.35;;
63095;SDS011;49184;55.596;37.770;2022-07-05T05:39:17;60.20;;;24.67;;
63095;SDS011;49184;55.596;37.770;2022-07-05T05:41:43;71.55;;;27.58;;
63095;SDS011;49184;55.596;37.770;2022-07-05T05:44:09;73.05;;;25.67;;
63095;SDS011;49184;55.596;37.770;2022-07-05T05:46:35;76.20;;;27.25;;
63095;SDS011;49184;55.596;37.770;2022-07-05T05:49:01;62.92;;;25.55;;
63095;SDS011;49184;55.596;37.770;2022-07-05T05:51:27;68.65;;;26.27;;
63095;SDS011;49184;55.596;37.770;2022-07-05T05:53:53;49.05;;;23.98;;
63095;SDS011;49184;55.596;37.770;2022-07-05T05:56:19;101.57;;;29.63;;
63095;SDS011;49184;55.596;37.770;2022-07-05T05:58:45;77.32;;;27.70;;
63095;SDS011;49184;55.596;37.770;2022-07-05T06:01:11;80.03;;;28.58;;
63095;SDS011;49184;55.596;37.770;2022-07-05T06:03:37;59.60;;;25.52;;
63095;SDS011;49184;55.596;37.770;2022-07-05T06:06:03;61.75;;;24.95;;
63095;SDS011;49184;55.596;37.770;2022-07-05T06:08:30;68.38;;;25.45;;
63095;SDS011;49184;55.596;37.770;2022-07-05T06:10:56;67.72;;;27.42;;
63095;SDS011;49184;55.596;37.770;2022-07-05T06:13:22;64.50;;;27.95;;
63095;SDS011;49184;55.596;37.770;2022-07-05T06:15:48;58.75;;;24.77;;
63095;SDS011;49184;55.596;37.770;2022-07-05T06:18:14;70.47;;;26.33;;
63095;SDS011;49184;55.596;37.770;2022-07-05T06:20:42;67.20;;;25.10;;
63095;SDS011;49184;55.596;37.770;2022-07-05T06:23:08;52.70;;;23.25;;
63095;SDS011;49184;55.596;37.770;2022-07-05T06:25:34;62.25;;;27.55;;
63095;SDS011;49184;55.596;37.770;2022-07-05T06:28:05;57.70;;;26.10;;
63095;SDS011;49184;55.596;37.770;2022-07-05T06:30:36;73.30;;;28.50;;
63095;SDS011;49184;55.596;37.770;2022-07-05T06:33:04;59.00;;;25.10;;
63095;SDS011;49184;55.596;37.770;2022-07-05T06:38:15;54.15;;;24.75;;
63095;SDS011;49184;55.596;37.770;2022-07-05T06:40:41;54.22;;;25.77;;
63095;SDS011;49184;55.596;37.770;2022-07-05T06:43:10;52.22;;;25.65;;
63095;SDS011;49184;55.596;37.770;2022-07-05T06:48:21;53.22;;;22.30;;
63095;SDS011;49184;55.596;37.770;2022-07-05T06:50:50;57.65;;;24.30;;
63095;SDS011;49184;55.596;37.770;2022-07-05T06:53:16;45.17;;;22.42;;
63095;SDS011;49184;55.596;37.770;2022-07-05T06:55:42;45.92;;;21.50;;
63095;SDS011;49184;55.596;37.770;2022-07-05T06:58:11;46.13;;;23.15;;
63095;SDS011;49184;55.596;37.770;2022-07-05T07:00:38;39.75;;;23.38;;
63095;SDS011;49184;55.596;37.770;2022-07-05T07:03:07;117.88;;;24.50;;
63095;SDS011;49184;55.596;37.770;2022-07-05T07:05:33;58.13;;;21.98;;
63095;SDS011;49184;55.596;37.770;2022-07-05T07:07:59;61.78;;;25.23;;
63095;SDS011;49184;55.596;37.770;2022-07-05T07:10:43;53.20;;;22.80;;
63095;SDS011;49184;55.596;37.770;2022-07-05T07:13:11;48.83;;;23.77;;
63095;SDS011;49184;55.596;37.770;2022-07-05T07:15:37;419.92;;;40.33;;
63095;SDS011;49184;55.596;37.770;2022-07-05T07:18:05;72.55;;;25.25;;
63095;SDS011;49184;55.596;37.770;2022-07-05T07:20:31;65.00;;;23.55;;
63095;SDS011;49184;55.596;37.770;2022-07-05T07:22:59;49.90;;;25.42;;
63095;SDS011;49184;55.596;37.770;2022-07-05T07:25:25;46.72;;;23.20;;
63095;SDS011;49184;55.596;37.770;2022-07-05T07:27:52;42.80;;;23.27;;
63095;SDS011;49184;55.596;37.770;2022-07-05T07:30:24;45.20;;;22.95;;
63095;SDS011;49184;55.596;37.770;2022-07-05T07:33:05;49.65;;;24.02;;
63095;SDS011;49184;55.596;37.770;2022-07-05T07:35:31;66.82;;;24.25;;
63095;SDS011;49184;55.596;37.770;2022-07-05T07:37:57;49.75;;;23.77;;
63095;SDS011;49184;55.596;37.770;2022-07-05T07:40:23;47.13;;;24.27;;
63095;SDS011;49184;55.596;37.770;2022-07-05T07:42:49;46.97;;;24.52;;
63095;SDS011;49184;55.596;37.770;2022-07-05T07:45:15;44.25;;;23.08;;
63095;SDS011;49184;55.596;37.770;2022-07-05T07:47:42;56.40;;;23.10;;
63095;SDS011;49184;55.596;37.770;2022-07-05T07:50:10;42.45;;;23.45;;
63095;SDS011;49184;55.596;37.770;2022-07-05T07:55:04;45.65;;;23.50;;
63095;SDS011;49184;55.596;37.770;2022-07-05T07:57:31;40.72;;;23.88;;
63095;SDS011;49184;55.596;37.770;2022-07-05T07:59:57;44.47;;;26.20;;
63095;SDS011;49184;55.596;37.770;2022-07-05T08:04:50;43.50;;;24.92;;
63095;SDS011;49184;55.596;37.770;2022-07-05T08:07:16;55.05;;;25.30;;
63095;SDS011;49184;55.596;37.770;2022-07-05T08:09:43;48.00;;;24.58;;
63095;SDS011;49184;55.596;37.770;2022-07-05T08:14:36;56.17;;;26.98;;
63095;SDS011;49184;55.596;37.770;2022-07-05T08:17:02;52.65;;;27.10;;
63095;SDS011;49184;55.596;37.770;2022-07-05T08:19:28;51.63;;;26.55;;
63095;SDS011;49184;55.596;37.770;2022-07-05T08:22:12;49.17;;;25.02;;
63095;SDS011;49184;55.596;37.770;2022-07-05T08:24:39;56.70;;;27.65;;
63095;SDS011;49184;55.596;37.770;2022-07-05T08:27:05;60.40;;;27.58;;
63095;SDS011;49184;55.596;37.770;2022-07-05T08:31:58;59.10;;;26.42;;
63095;SDS011;49184;55.596;37.770;2022-07-05T08:34:24;525.38;;;44.38;;
63095;SDS011;49184;55.596;37.770;2022-07-05T08:36:50;63.90;;;26.60;;
63095;SDS011;49184;55.596;37.770;2022-07-05T08:39:17;70.72;;;26.30;;
63095;SDS011;49184;55.596;37.770;2022-07-05T08:41:47;50.05;;;26.23;;
63095;SDS011;49184;55.596;37.770;2022-07-05T08:44:20;47.45;;;25.95;;
63095;SDS011;49184;55.596;37.770;2022-07-05T08:46:51;42.67;;;24.80;;
63095;SDS011;49184;55.596;37.770;2022-07-05T08:49:20;41.15;;;24.38;;
63095;SDS011;49184;55.596;37.770;2022-07-05T08:51:48;41.15;;;24.65;;
63095;SDS011;49184;55.596;37.770;2022-07-05T08:54:16;49.88;;;24.90;;
63095;SDS011;49184;55.596;37.770;2022-07-05T08:59:47;50.08;;;26.42;;
63095;SDS011;49184;55.596;37.770;2022-07-05T09:03:11;110.30;;;27.80;;
63095;SDS011;49184;55.596;37.770;2022-07-05T09:05:43;55.83;;;27.05;;
63095;SDS011;49184;55.596;37.770;2022-07-05T09:08:13;53.58;;;26.98;;
63095;SDS011;49184;55.596;37.770;2022-07-05T09:18:19;42.78;;;27.20;;
63095;SDS011;49184;55.596;37.770;2022-07-05T09:26:40;49.85;;;27.35;;
63095;SDS011;49184;55.596;37.770;2022-07-05T09:29:08;50.53;;;27.13;;
63095;SDS011;49184;55.596;37.770;2022-07-05T09:31:37;53.75;;;27.90;;
63095;SDS011;49184;55.596;37.770;2022-07-05T09:34:12;77.18;;;27.25;;
63095;SDS011;49184;55.596;37.770;2022-07-05T09:36:58;62.67;;;27.02;;
63095;SDS011;49184;55.596;37.770;2022-07-05T09:44:41;57.92;;;28.27;;
63095;SDS011;49184;55.596;37.770;2022-07-05T09:47:12;61.47;;;28.52;;
63095;SDS011;49184;55.596;37.770;2022-07-05T09:57:33;48.10;;;25.90;;
63095;SDS011;49184;55.596;37.770;2022-07-05T10:00:18;42.97;;;27.27;;
63095;SDS011;49184;55.596;37.770;2022-07-05T10:02:46;70.97;;;33.15;;
63095;SDS011;49184;55.596;37.770;2022-07-05T10:05:24;71.60;;;30.63;;
63095;SDS011;49184;55.596;37.770;2022-07-05T10:10:19;43.83;;;27.08;;
63095;SDS011;49184;55.596;37.770;2022-07-05T10:12:49;49.92;;;27.15;;
63095;SDS011;49184;55.596;37.770;2022-07-05T10:15:25;46.38;;;27.08;;
63095;SDS011;49184;55.596;37.770;2022-07-05T10:17:53;63.85;;;26.88;;
63095;SDS011;49184;55.596;37.770;2022-07-05T10:20:42;47.22;;;26.30;;
63095;SDS011;49184;55.596;37.770;2022-07-05T10:23:12;48.38;;;27.10;;
63095;SDS011;49184;55.596;37.770;2022-07-05T10:25:41;49.95;;;26.60;;
63095;SDS011;49184;55.596;37.770;2022-07-05T10:28:09;41.25;;;25.88;;
63095;SDS011;49184;55.596;37.770;2022-07-05T10:30:36;41.92;;;27.58;;
63095;SDS011;49184;55.596;37.770;2022-07-05T10:33:06;52.28;;;29.05;;
63095;SDS011;49184;55.596;37.770;2022-07-05T10:35:33;54.75;;;32.55;;
63095;SDS011;49184;55.596;37.770;2022-07-05T10:38:00;87.25;;;41.60;;
63095;SDS011;49184;55.596;37.770;2022-07-05T10:40:30;76.65;;;30.65;;
63095;SDS011;49184;55.596;37.770;2022-07-05T10:42:59;48.85;;;25.58;;
63095;SDS011;49184;55.596;37.770;2022-07-05T10:45:36;41.60;;;27.08;;
63095;SDS011;49184;55.596;37.770;2022-07-05T10:48:18;46.80;;;28.38;;
63095;SDS011;49184;55.596;37.770;2022-07-05T10:50:47;45.65;;;26.42;;
63095;SDS011;49184;55.596;37.770;2022-07-05T10:53:25;64.88;;;28.50;;
63095;SDS011;49184;55.596;37.770;2022-07-05T10:56:17;43.83;;;26.13;;
63095;SDS011;49184;55.596;37.770;2022-07-05T10:58:47;38.90;;;26.50;;
63095;SDS011;49184;55.596;37.770;2022-07-05T11:03:54;58.13;;;27.77;;
63095;SDS011;49184;55.596;37.770;2022-07-05T11:06:45;39.47;;;25.95;;
63095;SDS011;49184;55.596;37.770;2022-07-05T11:09:19;38.42;;;26.90;;
63095;SDS011;49184;55.596;37.770;2022-07-05T11:16:46;60.88;;;27.60;;
63095;SDS011;49184;55.596;37.770;2022-07-05T11:19:17;38.78;;;26.48;;
63095;SDS011;49184;55.596;37.770;2022-07-05T11:22:04;40.20;;;26.10;;
63095;SDS011;49184;55.596;37.770;2022-07-05T11:24:36;63.20;;;26.48;;
63095;SDS011;49184;55.596;37.770;2022-07-05T11:27:13;55.20;;;28.55;;
63095;SDS011;49184;55.596;37.770;2022-07-05T11:29:40;58.60;;;28.20;;
63095;SDS011;49184;55.596;37.770;2022-07-05T11:32:08;359.52;;;38.80;;
63095;SDS011;49184;55.596;37.770;2022-07-05T11:34:36;75.20;;;30.90;;
63095;SDS011;49184;55.596;37.770;2022-07-05T11:39:48;149.43;;;34.58;;
63095;SDS011;49184;55.596;37.770;2022-07-05T11:42:46;160.38;;;34.83;;
63095;SDS011;49184;55.596;37.770;2022-07-05T11:45:15;135.82;;;32.80;;
63095;SDS011;49184;55.596;37.770;2022-07-05T11:47:42;186.90;;;37.10;;
63095;SDS011;49184;55.596;37.770;2022-07-05T11:50:12;147.13;;;34.05;;
63095;SDS011;49184;55.596;37.770;2022-07-05T11:52:39;130.60;;;34.03;;
63095;SDS011;49184;55.596;37.770;2022-07-05T11:55:06;157.32;;;36.42;;
63095;SDS011;49184;55.596;37.770;2022-07-05T11:57:37;134.73;;;33.60;;
63095;SDS011;49184;55.596;37.770;2022-07-05T12:00:24;139.38;;;36.03;;
63095;SDS011;49184;55.596;37.770;2022-07-05T12:02:58;214.07;;;40.67;;
63095;SDS011;49184;55.596;37.770;2022-07-05T12:05:31;121.78;;;33.70;;
63095;SDS011;49184;55.596;37.770;2022-07-05T12:07:58;126.15;;;37.08;;
63095;SDS011;49184;55.596;37.770;2022-07-05T12:10:24;117.20;;;36.30;;
63095;SDS011;49184;55.596;37.770;2022-07-05T12:13:09;233.32;;;41.25;;
63095;SDS011;49184;55.596;37.770;2022-07-05T12:15:36;145.80;;;36.97;;
63095;SDS011;49184;55.596;37.770;2022-07-05T12:18:03;98.22;;;34.42;;
63095;SDS011;49184;55.596;37.770;2022-07-05T12:20:35;126.88;;;36.83;;
63095;SDS011;49184;55.596;37.770;2022-07-05T12:23:06;109.50;;;34.65;;
63095;SDS011;49184;55.596;37.770;2022-07-05T12:25:33;115.57;;;36.38;;
63095;SDS011;49184;55.596;37.770;2022-07-05T12:28:00;104.97;;;34.95;;
63095;SDS011;49184;55.596;37.770;2022-07-05T12:30:31;93.88;;;34.83;;
63095;SDS011;49184;55.596;37.770;2022-07-05T12:33:02;78.28;;;32.00;;
63095;SDS011;49184;55.596;37.770;2022-07-05T12:35:41;81.85;;;34.85;;
63095;SDS011;49184;55.596;37.770;2022-07-05T12:38:15;142.38;;;37.70;;
63095;SDS011;49184;55.596;37.770;2022-07-05T12:40:45;82.13;;;33.35;;
63095;SDS011;49184;55.596;37.770;2022-07-05T12:43:47;91.60;;;33.20;;
63095;SDS011;49184;55.596;37.770;2022-07-05T12:46:19;97.82;;;32.53;;
63095;SDS011;49184;55.596;37.770;2022-07-05T12:48:51;55.38;;;28.33;;
63095;SDS011;49184;55.596;37.770;2022-07-05T12:51:36;88.18;;;30.95;;
63095;SDS011;49184;55.596;37.770;2022-07-05T12:54:07;76.78;;;29.67;;
63095;SDS011;49184;55.596;37.770;2022-07-05T12:57:02;84.07;;;32.30;;
63095;SDS011;49184;55.596;37.770;2022-07-05T13:00:22;96.20;;;31.33;;
63095;SDS011;49184;55.596;37.770;2022-07-05T13:03:22;117.60;;;33.72;;
63095;SDS011;49184;55.596;37.770;2022-07-05T13:09:53;79.10;;;32.63;;
63095;SDS011;49184;55.596;37.770;2022-07-05T13:13:55;136.40;;;35.85;;
63095;SDS011;49184;55.596;37.770;2022-07-05T13:16:52;131.83;;;39.43;;
63095;SDS011;49184;55.596;37.770;2022-07-05T13:19:19;85.05;;;38.33;;
63095;SDS011;49184;55.596;37.770;2022-07-05T13:21:48;85.60;;;36.00;;
63095;SDS011;49184;55.596;37.770;2022-07-05T13:24:14;82.75;;;35.63;;
63095;SDS011;49184;55.596;37.770;2022-07-05T13:26:41;84.32;;;37.72;;
63095;SDS011;49184;55.596;37.770;2022-07-05T13:29:09;114.93;;;37.47;;
63095;SDS011;49184;55.596;37.770;2022-07-05T13:31:37;103.85;;;38.80;;
63095;SDS011;49184;55.596;37.770;2022-07-05T13:34:03;111.97;;;39.50;;
63095;SDS011;49184;55.596;37.770;2022-07-05T13:36:52;132.32;;;40.63;;
63095;SDS011;49184;55.596;37.770;2022-07-05T13:39:22;139.85;;;39.15;;
63095;SDS011;49184;55.596;37.770;2022-07-05T13:41:50;69.35;;;34.00;;
63095;SDS011;49184;55.596;37.770;2022-07-05T13:44:22;61.83;;;35.30;;
63095;SDS011;49184;55.596;37.770;2022-07-05T13:46:48;71.95;;;36.17;;
63095;SDS011;49184;55.596;37.770;2022-07-05T13:49:15;100.28;;;38.17;;
63095;SDS011;49184;55.596;37.770;2022-07-05T13:51:41;89.15;;;33.30;;
63095;SDS011;49184;55.596;37.770;2022-07-05T13:54:07;80.10;;;32.80;;
63095;SDS011;49184;55.596;37.770;2022-07-05T13:56:37;113.05;;;36.70;;
63095;SDS011;49184;55.596;37.770;2022-07-05T13:59:06;134.10;;;40.30;;
63095;SDS011;49184;55.596;37.770;2022-07-05T14:01:35;214.70;;;41.70;;
63095;SDS011;49184;55.596;37.770;2022-07-05T14:04:10;76.47;;;33.00;;
63095;SDS011;49184;55.596;37.770;2022-07-05T14:06:38;77.32;;;32.58;;
63095;SDS011;49184;55.596;37.770;2022-07-05T14:09:05;116.65;;;38.22;;
63095;SDS011;49184;55.596;37.770;2022-07-05T14:11:35;95.32;;;32.10;;
63095;SDS011;49184;55.596;37.770;2022-07-05T14:14:01;70.53;;;32.28;;
63095;SDS011;49184;55.596;37.770;2022-07-05T14:16:27;109.75;;;35.05;;
63095;SDS011;49184;55.596;37.770;2022-07-05T14:18:57;111.57;;;34.45;;
63095;SDS011;49184;55.596;37.770;2022-07-05T14:21:32;123.05;;;39.03;;
63095;SDS011;49184;55.596;37.770;2022-07-05T14:24:25;147.27;;;41.53;;
63095;SDS011;49184;55.596;37.770;2022-07-05T14:26:51;107.38;;;40.42;;
63095;SDS011;49184;55.596;37.770;2022-07-05T14:29:21;96.95;;;43.97;;
63095;SDS011;49184;55.596;37.770;2022-07-05T14:31:50;104.85;;;47.13;;
63095;SDS011;49184;55.596;37.770;2022-07-05T14:34:16;98.32;;;42.88;;
63095;SDS011;49184;55.596;37.770;2022-07-05T14:36:45;112.05;;;47.97;;
63095;SDS011;49184;55.596;37.770;2022-07-05T14:39:11;121.15;;;48.83;;
63095;SDS011;49184;55.596;37.770;2022-07-05T14:41:39;136.68;;;52.55;;
63095;SDS011;49184;55.596;37.770;2022-07-05T14:44:06;136.05;;;47.03;;
63095;SDS011;49184;55.596;37.770;2022-07-05T14:46:32;113.47;;;39.78;;
63095;SDS011;49184;55.596;37.770;2022-07-05T14:48:58;87.05;;;37.95;;
63095;SDS011;49184;55.596;37.770;2022-07-05T14:51:29;104.05;;;42.22;;
63095;SDS011;49184;55.596;37.770;2022-07-05T14:54:00;90.20;;;42.53;;
63095;SDS011;49184;55.596;37.770;2022-07-05T14:56:30;84.07;;;39.50;;
63095;SDS011;49184;55.596;37.770;2022-07-05T14:59:04;79.93;;;37.53;;
63095;SDS011;49184;55.596;37.770;2022-07-05T15:01:32;82.35;;;35.03;;
63095;SDS011;49184;55.596;37.770;2022-07-05T15:04:00;75.95;;;36.55;;
63095;SDS011;49184;55.596;37.770;2022-07-05T15:06:30;82.55;;;39.70;;
63095;SDS011;49184;55.596;37.770;2022-07-05T15:08:56;72.43;;;34.25;;
63095;SDS011;49184;55.596;37.770;2022-07-05T15:11:24;60.17;;;26.90;;
63095;SDS011;49184;55.596;37.770;2022-07-05T15:13:53;50.40;;;21.58;;
63095;SDS011;49184;55.596;37.770;2022-07-05T15:16:43;31.10;;;16.30;;
63095;SDS011;49184;55.596;37.770;2022-07-05T15:19:14;34.28;;;17.20;;
63095;SDS011;49184;55.596;37.770;2022-07-05T15:21:40;36.45;;;17.02;;
63095;SDS011;49184;55.596;37.770;2022-07-05T15:24:10;38.22;;;18.85;;
63095;SDS011;49184;55.596;37.770;2022-07-05T15:26:37;32.25;;;16.27;;
63095;SDS011;49184;55.596;37.770;2022-07-05T15:29:05;43.42;;;15.82;;
63095;SDS011;49184;55.596;37.770;2022-07-05T15:31:33;36.25;;;18.77;;
63095;SDS011;49184;55.596;37.770;2022-07-05T16:05:41;51.47;;;24.20;;
63095;SDS011;49184;55.596;37.770;2022-07-05T16:08:07;49.80;;;24.02;;
63095;SDS011;49184;55.596;37.770;2022-07-05T16:10:34;62.65;;;26.50;;
63095;SDS011;49184;55.596;37.770;2022-07-05T16:13:00;51.15;;;26.80;;
63095;SDS011;49184;55.596;37.770;2022-07-05T16:15:26;68.63;;;27.92;;
63095;SDS011;49184;55.596;37.770;2022-07-05T16:18:11;57.05;;;27.23;;
63095;SDS011;49184;55.596;37.770;2022-07-05T16:20:39;71.78;;;28.52;;
63095;SDS011;49184;55.596;37.770;2022-07-05T17:18:10;152.13;;;33.72;;
63095;SDS011;49184;55.596;37.770;2022-07-05T17:20:36;57.75;;;30.48;;
63095;SDS011;49184;55.596;37.770;2022-07-05T17:26:00;47.67;;;26.90;;
63095;SDS011;49184;55.596;37.770;2022-07-05T17:28:28;48.65;;;28.67;;
63095;SDS011;49184;55.596;37.770;2022-07-05T17:31:05;44.08;;;27.77;;
63095;SDS011;49184;55.596;37.770;2022-07-05T17:33:34;47.92;;;29.13;;
63095;SDS011;49184;55.596;37.770;2022-07-05T17:36:10;55.78;;;31.55;;
63095;SDS011;49184;55.596;37.770;2022-07-05T17:38:44;88.60;;;28.38;;
63095;SDS011;49184;55.596;37.770;2022-07-05T17:41:13;47.90;;;28.17;;
63095;SDS011;49184;55.596;37.770;2022-07-05T17:43:42;51.15;;;26.38;;
63095;SDS011;49184;55.596;37.770;2022-07-05T17:48:48;47.53;;;27.58;;
63095;SDS011;49184;55.596;37.770;2022-07-05T17:51:18;44.35;;;27.65;;
63095;SDS011;49184;55.596;37.770;2022-07-05T17:53:45;47.08;;;28.85;;
63095;SDS011;49184;55.596;37.770;2022-07-05T17:56:12;54.05;;;31.92;;
63095;SDS011;49184;55.596;37.770;2022-07-05T18:01:59;51.10;;;30.15;;
63095;SDS011;49184;55.596;37.770;2022-07-05T18:04:26;54.13;;;30.98;;
63095;SDS011;49184;55.596;37.770;2022-07-05T18:06:55;51.53;;;30.30;;
63095;SDS011;49184;55.596;37.770;2022-07-05T18:09:23;58.42;;;32.45;;
63095;SDS011;49184;55.596;37.770;2022-07-05T18:11:49;49.85;;;30.58;;
63095;SDS011;49184;55.596;37.770;2022-07-05T18:14:16;54.50;;;32.10;;
63095;SDS011;49184;55.596;37.770;2022-07-05T18:16:44;54.63;;;32.58;;
63095;SDS011;49184;55.596;37.770;2022-07-05T18:19:10;59.83;;;34.60;;
63095;SDS011;49184;55.596;37.770;2022-07-05T18:21:36;53.10;;;32.95;;
63095;SDS011;49184;55.596;37.770;2022-07-05T18:24:04;57.33;;;35.85;;
63095;SDS011;49184;55.596;37.770;2022-07-05T18:26:35;93.35;;;40.15;;
63095;SDS011;49184;55.596;37.770;2022-07-05T18:29:03;68.43;;;40.00;;
63095;SDS011;49184;55.596;37.770;2022-07-05T18:31:30;59.95;;;36.55;;
63095;SDS011;49184;55.596;37.770;2022-07-05T18:33:59;60.65;;;36.10;;
63095;SDS011;49184;55.596;37.770;2022-07-05T18:36:28;59.85;;;36.67;;